Hlavní strana
METAR-TAF:

METAR-TAF

Letiště :

Frontone, Itálie

zeměpisná šířka: 43-31N, zeměpisná délka: 012-44E, výška: 570 m

Aktuální stav počasí

Zpráva byla vytvořena před 46 minutami, v 14:55 UTC
Jihojihovýchodní vítr 5 kt
Teplota 7°C
Vlhkost vzduchu 45%
Tlak 1025 hPa
Viditelnost 10 km a více
Skoro jasno ve výšce 3500 ft

METAR: LIVF 201455Z 15005KT 9999 FEW035 07/M04 Q1025 RMK FEW MON LIB VAL NIL VIS MIN 9999

Čas: 16:41 (15:41 UTC)


TAF: chybějící

Stav a předpovědi počasí z více než 4 000 letišť (zprávy METAR a TAF).

Červené a žluté tečky na mapě představují dostupné meteorologické stanice.

Když kurzor umístíte na tečku, zobrazí se název stanice.

Pak kliknutím zobrazíte stav a předpověď počasí.

Chcete-li změnit mapu, kliknutím na zelené tlačítko se znaménkem +mapu přiblížíte, kliknutím na zelené tlačítko se znaménkem – mapu oddálíte a kliknutím na zelené šipky přejdete na sousední mapy.


METAR-TAF: